Merrifield, VA (22116)

12:42 AM EDT on September 03, 2014 (GMT -0400)
Mantua | Change Station
CLOSE
Current Station
Personal Weather Station
Location: Fairfax, VA
Elevation: 335 ft
Nearby Weather Stations

Elev 335 ft 38.86 °N, 77.26 °W | Updated 15 seconds ago

Mostly Cloudy
Mostly Cloudy
74.3 °F
Feels Like 71 °F
N
0.0
Wind Variable Wind from SSW
Gusts 0.0 mph

Today
High -- | Low -- °F
--% Chance of Precip.
Yesterday
High -- | Low -- °F
Precip. -- in
6:39 AM 7:36 PM
First Quarter, 58% visible
Pressure 29.91 in
Visibility 9.0 miles
Clouds Scattered Clouds 15000 ft
Heat Index 71 °F
Dew Point 74 °F
Humidity 98%
Rainfall 0.00 in
Snow Depth Not available.
UV 0 out of 12
Pollen 9.80 out of 12
Ozone Good
PM2.5 Good
Flu Activity Not available.
SPECI KDAA 030438Z AUTO 31001KT 9SM SCT150 24/23 A2991 RMK AO2 LTG DSNT S

More Conditions Fewer Conditions

Pressure 29.91 in
Visibility 9.0 miles
Clouds Scattered Clouds 15000 ft
Heat Index 71 °F
Dew Point 74 °F
Humidity 98%
Rainfall 0.00 in
Snow Depth Not available.
UV 0 out of 12
Pollen 9.80 out of 12
Ozone Good
PM2.5 Good
Flu Activity Not available.
SPECI KDAA 030438Z AUTO 31001KT 9SM SCT150 24/23 A2991 RMK AO2 LTG DSNT S

More Conditions Fewer Conditions

10-Day Weather Forecast

Almanac

Astronomy

Sep. 03, 2014 Rise Set
Actual Time 6:39 AM EDT 7:36 PM EDT
Civil Twilight 6:12 AM EDT 8:03 PM EDT
Nautical Twilight 5:40 AM EDT 8:35 PM EDT
Astronomical Twilight 5:06 AM EDT 9:09 PM EDT
Moon 3:14 PM EDT 12:33 AM EDT
Length of Visible Light 13h 50m
Length of Day
12h 56m
Tomorrow will be 2m 26s shorter.
First Quarter, 58% of the Moon is Illuminated
Today
First Quarter
Sep 8
Full
Sep 15
Last Quarter
Sep 24
New
Oct 1
First Quarter

Today's Extremes

State Highs State Lows

Community

WunderPhotos

Upload Photos

1,749,875 photos uploaded!

Nearby

Air Quality

  Air Quality AQ Index Pollutant
Yesterday Good
PM10
Yesterday Good
OZONE
Current Good
PM2.5
Current Good
OZONE
Tuesday Moderate
PM2.5
Tuesday Moderate
OZONE
Wednesday Moderate
OZONE
Wednesday Good
PM2.5
Thursday Moderate
OZONE
Thursday Moderate
PM2.5
Friday Moderate
OZONE
Friday Moderate
PM2.5

Snow Depth

Station Depth Elevation
No new snow has been reported.

Earthquake Activity

City Distance Mag. Time & Date
No recent earthquake activity has been reported nearby.
Minimum magnitude displayed is 2.5.

Coastal Water Temperatures

Place Temperature
Washington, DC 82.0 °F
Baltimore, MD 82.9 °F
Solomons Island, MD 81.0 °F

Nearby Weather Stations